sensor_id;sensor_type;location;lat;lon;timestamp;P1;durP1;ratioP1;P2;durP2;ratioP2
66559;SDS011;53413;49.878;8.142;2023-08-17T00:00:44;30.20;;;9.50;;
66559;SDS011;53413;49.878;8.142;2023-08-17T00:03:09;31.97;;;9.97;;
66559;SDS011;53413;49.878;8.142;2023-08-17T00:05:35;32.23;;;9.23;;
66559;SDS011;53413;49.878;8.142;2023-08-17T00:08:00;38.25;;;10.38;;
66559;SDS011;53413;49.878;8.142;2023-08-17T00:10:28;32.90;;;9.65;;
66559;SDS011;53413;49.878;8.142;2023-08-17T00:12:54;39.85;;;10.98;;
66559;SDS011;53413;49.878;8.142;2023-08-17T00:15:19;36.00;;;9.90;;
66559;SDS011;53413;49.878;8.142;2023-08-17T00:17:45;35.10;;;8.83;;
66559;SDS011;53413;49.878;8.142;2023-08-17T00:20:10;39.17;;;10.50;;
66559;SDS011;53413;49.878;8.142;2023-08-17T00:22:36;41.22;;;11.07;;
66559;SDS011;53413;49.878;8.142;2023-08-17T00:25:02;36.53;;;10.15;;
66559;SDS011;53413;49.878;8.142;2023-08-17T00:27:31;39.23;;;10.47;;
66559;SDS011;53413;49.878;8.142;2023-08-17T00:29:57;39.25;;;9.85;;
66559;SDS011;53413;49.878;8.142;2023-08-17T00:32:22;36.63;;;9.90;;
66559;SDS011;53413;49.878;8.142;2023-08-17T00:34:48;35.65;;;9.07;;
66559;SDS011;53413;49.878;8.142;2023-08-17T00:37:13;37.25;;;8.70;;
66559;SDS011;53413;49.878;8.142;2023-08-17T00:39:38;38.37;;;9.20;;
66559;SDS011;53413;49.878;8.142;2023-08-17T00:42:04;35.40;;;8.77;;
66559;SDS011;53413;49.878;8.142;2023-08-17T00:44:29;36.67;;;8.23;;
66559;SDS011;53413;49.878;8.142;2023-08-17T00:46:55;34.45;;;9.15;;
66559;SDS011;53413;49.878;8.142;2023-08-17T00:49:21;40.28;;;9.25;;
66559;SDS011;53413;49.878;8.142;2023-08-17T00:51:46;35.88;;;8.98;;
66559;SDS011;53413;49.878;8.142;2023-08-17T00:54:12;34.53;;;9.07;;
66559;SDS011;53413;49.878;8.142;2023-08-17T00:56:38;32.58;;;9.23;;
66559;SDS011;53413;49.878;8.142;2023-08-17T00:59:03;34.23;;;9.17;;
66559;SDS011;53413;49.878;8.142;2023-08-17T01:01:29;30.63;;;7.90;;
66559;SDS011;53413;49.878;8.142;2023-08-17T01:03:55;27.02;;;7.78;;
66559;SDS011;53413;49.878;8.142;2023-08-17T01:06:20;33.10;;;8.13;;
66559;SDS011;53413;49.878;8.142;2023-08-17T01:08:45;34.33;;;7.63;;
66559;SDS011;53413;49.878;8.142;2023-08-17T01:11:32;31.92;;;7.97;;
66559;SDS011;53413;49.878;8.142;2023-08-17T01:16:52;31.25;;;7.15;;
66559;SDS011;53413;49.878;8.142;2023-08-17T01:19:26;38.28;;;7.65;;
66559;SDS011;53413;49.878;8.142;2023-08-17T01:21:54;42.10;;;8.27;;
66559;SDS011;53413;49.878;8.142;2023-08-17T01:24:28;39.50;;;8.10;;
66559;SDS011;53413;49.878;8.142;2023-08-17T01:26:53;34.73;;;7.73;;
66559;SDS011;53413;49.878;8.142;2023-08-17T01:29:18;37.40;;;8.40;;
66559;SDS011;53413;49.878;8.142;2023-08-17T01:31:52;38.53;;;8.30;;
66559;SDS011;53413;49.878;8.142;2023-08-17T01:34:24;38.97;;;8.80;;
66559;SDS011;53413;49.878;8.142;2023-08-17T01:36:52;35.47;;;8.48;;
66559;SDS011;53413;49.878;8.142;2023-08-17T01:39:22;41.50;;;9.23;;
66559;SDS011;53413;49.878;8.142;2023-08-17T01:41:51;36.35;;;9.20;;
66559;SDS011;53413;49.878;8.142;2023-08-17T01:44:20;37.05;;;9.38;;
66559;SDS011;53413;49.878;8.142;2023-08-17T01:46:46;32.50;;;8.90;;
66559;SDS011;53413;49.878;8.142;2023-08-17T01:49:11;34.13;;;9.63;;
66559;SDS011;53413;49.878;8.142;2023-08-17T01:51:36;53.25;;;14.48;;
66559;SDS011;53413;49.878;8.142;2023-08-17T01:54:02;59.50;;;16.08;;
66559;SDS011;53413;49.878;8.142;2023-08-17T01:56:27;56.67;;;14.93;;
66559;SDS011;53413;49.878;8.142;2023-08-17T01:58:52;56.10;;;15.73;;
66559;SDS011;53413;49.878;8.142;2023-08-17T02:01:18;60.00;;;16.17;;
66559;SDS011;53413;49.878;8.142;2023-08-17T02:03:43;68.17;;;18.73;;
66559;SDS011;53413;49.878;8.142;2023-08-17T02:06:09;62.07;;;16.53;;
66559;SDS011;53413;49.878;8.142;2023-08-17T02:08:34;67.37;;;16.87;;
66559;SDS011;53413;49.878;8.142;2023-08-17T02:11:00;59.58;;;15.80;;
66559;SDS011;53413;49.878;8.142;2023-08-17T02:13:25;70.03;;;17.90;;
66559;SDS011;53413;49.878;8.142;2023-08-17T02:15:52;65.97;;;16.85;;
66559;SDS011;53413;49.878;8.142;2023-08-17T02:18:17;58.90;;;15.20;;
66559;SDS011;53413;49.878;8.142;2023-08-17T02:20:43;63.05;;;15.25;;
66559;SDS011;53413;49.878;8.142;2023-08-17T02:23:08;58.97;;;15.23;;
66559;SDS011;53413;49.878;8.142;2023-08-17T02:25:33;50.23;;;13.57;;
66559;SDS011;53413;49.878;8.142;2023-08-17T02:28:02;45.30;;;13.27;;
66559;SDS011;53413;49.878;8.142;2023-08-17T02:30:28;48.42;;;14.40;;
66559;SDS011;53413;49.878;8.142;2023-08-17T02:32:54;54.53;;;14.65;;
66559;SDS011;53413;49.878;8.142;2023-08-17T02:35:19;41.37;;;11.97;;
66559;SDS011;53413;49.878;8.142;2023-08-17T02:37:45;47.58;;;13.23;;
66559;SDS011;53413;49.878;8.142;2023-08-17T02:40:10;45.63;;;13.45;;
66559;SDS011;53413;49.878;8.142;2023-08-17T02:42:36;48.97;;;13.20;;
66559;SDS011;53413;49.878;8.142;2023-08-17T02:45:01;49.03;;;12.63;;
66559;SDS011;53413;49.878;8.142;2023-08-17T02:47:27;42.47;;;12.73;;
66559;SDS011;53413;49.878;8.142;2023-08-17T02:49:52;45.00;;;13.52;;
66559;SDS011;53413;49.878;8.142;2023-08-17T02:52:17;38.60;;;12.07;;
66559;SDS011;53413;49.878;8.142;2023-08-17T02:54:43;50.53;;;14.37;;
66559;SDS011;53413;49.878;8.142;2023-08-17T02:57:08;46.40;;;13.57;;
66559;SDS011;53413;49.878;8.142;2023-08-17T02:59:33;51.97;;;13.70;;
66559;SDS011;53413;49.878;8.142;2023-08-17T03:01:59;52.60;;;14.50;;
66559;SDS011;53413;49.878;8.142;2023-08-17T03:04:24;52.93;;;14.20;;
66559;SDS011;53413;49.878;8.142;2023-08-17T03:06:49;45.67;;;13.13;;
66559;SDS011;53413;49.878;8.142;2023-08-17T03:09:15;43.07;;;12.90;;
66559;SDS011;53413;49.878;8.142;2023-08-17T03:11:40;51.10;;;13.57;;
66559;SDS011;53413;49.878;8.142;2023-08-17T03:14:06;43.37;;;12.90;;
66559;SDS011;53413;49.878;8.142;2023-08-17T03:16:31;44.43;;;13.27;;
66559;SDS011;53413;49.878;8.142;2023-08-17T03:18:56;43.90;;;13.50;;
66559;SDS011;53413;49.878;8.142;2023-08-17T03:21:22;46.23;;;13.50;;
66559;SDS011;53413;49.878;8.142;2023-08-17T03:23:48;47.23;;;15.27;;
66559;SDS011;53413;49.878;8.142;2023-08-17T03:26:13;40.58;;;13.80;;
66559;SDS011;53413;49.878;8.142;2023-08-17T03:28:39;44.97;;;15.33;;
66559;SDS011;53413;49.878;8.142;2023-08-17T03:31:04;43.10;;;15.23;;
66559;SDS011;53413;49.878;8.142;2023-08-17T03:33:31;41.50;;;16.05;;
66559;SDS011;53413;49.878;8.142;2023-08-17T03:35:57;40.53;;;15.10;;
66559;SDS011;53413;49.878;8.142;2023-08-17T03:38:22;42.00;;;14.77;;
66559;SDS011;53413;49.878;8.142;2023-08-17T03:40:48;51.40;;;16.27;;
66559;SDS011;53413;49.878;8.142;2023-08-17T03:43:13;43.83;;;15.97;;
66559;SDS011;53413;49.878;8.142;2023-08-17T03:45:40;41.77;;;15.13;;
66559;SDS011;53413;49.878;8.142;2023-08-17T03:48:06;49.83;;;17.08;;
66559;SDS011;53413;49.878;8.142;2023-08-17T03:50:32;45.57;;;15.53;;
66559;SDS011;53413;49.878;8.142;2023-08-17T03:52:57;42.05;;;14.20;;
66559;SDS011;53413;49.878;8.142;2023-08-17T03:55:22;47.67;;;15.33;;
66559;SDS011;53413;49.878;8.142;2023-08-17T03:57:48;67.73;;;18.20;;
66559;SDS011;53413;49.878;8.142;2023-08-17T04:00:13;75.73;;;17.93;;
66559;SDS011;53413;49.878;8.142;2023-08-17T04:02:39;56.85;;;15.32;;
66559;SDS011;53413;49.878;8.142;2023-08-17T04:05:04;65.93;;;17.33;;
66559;SDS011;53413;49.878;8.142;2023-08-17T04:07:30;63.27;;;16.27;;
66559;SDS011;53413;49.878;8.142;2023-08-17T04:09:55;53.10;;;15.53;;
66559;SDS011;53413;49.878;8.142;2023-08-17T04:12:21;59.43;;;16.50;;
66559;SDS011;53413;49.878;8.142;2023-08-17T04:14:46;59.58;;;15.70;;
66559;SDS011;53413;49.878;8.142;2023-08-17T04:17:11;58.57;;;15.50;;
66559;SDS011;53413;49.878;8.142;2023-08-17T04:19:37;54.37;;;15.23;;
66559;SDS011;53413;49.878;8.142;2023-08-17T04:22:02;69.20;;;19.87;;
66559;SDS011;53413;49.878;8.142;2023-08-17T04:24:28;56.83;;;16.20;;
66559;SDS011;53413;49.878;8.142;2023-08-17T04:26:53;52.08;;;14.38;;
66559;SDS011;53413;49.878;8.142;2023-08-17T04:29:18;52.57;;;14.33;;
66559;SDS011;53413;49.878;8.142;2023-08-17T04:31:44;60.47;;;15.30;;
66559;SDS011;53413;49.878;8.142;2023-08-17T04:34:10;57.65;;;14.30;;
66559;SDS011;53413;49.878;8.142;2023-08-17T04:36:36;57.23;;;14.23;;
66559;SDS011;53413;49.878;8.142;2023-08-17T04:39:01;60.80;;;14.60;;
66559;SDS011;53413;49.878;8.142;2023-08-17T04:41:26;60.20;;;14.10;;
66559;SDS011;53413;49.878;8.142;2023-08-17T04:43:52;53.27;;;13.90;;
66559;SDS011;53413;49.878;8.142;2023-08-17T04:46:17;55.25;;;13.50;;
66559;SDS011;53413;49.878;8.142;2023-08-17T04:48:43;60.17;;;14.73;;
66559;SDS011;53413;49.878;8.142;2023-08-17T04:51:08;62.63;;;14.00;;
66559;SDS011;53413;49.878;8.142;2023-08-17T04:53:33;68.10;;;14.97;;
66559;SDS011;53413;49.878;8.142;2023-08-17T04:55:59;63.00;;;14.87;;
66559;SDS011;53413;49.878;8.142;2023-08-17T04:58:24;51.93;;;13.80;;
66559;SDS011;53413;49.878;8.142;2023-08-17T05:00:52;44.20;;;13.05;;
66559;SDS011;53413;49.878;8.142;2023-08-17T05:03:17;45.27;;;13.07;;
66559;SDS011;53413;49.878;8.142;2023-08-17T05:05:43;44.93;;;12.93;;
66559;SDS011;53413;49.878;8.142;2023-08-17T05:08:08;41.50;;;12.07;;
66559;SDS011;53413;49.878;8.142;2023-08-17T05:10:34;39.65;;;11.93;;
66559;SDS011;53413;49.878;8.142;2023-08-17T05:12:59;36.50;;;11.83;;
66559;SDS011;53413;49.878;8.142;2023-08-17T05:15:24;29.97;;;10.93;;
66559;SDS011;53413;49.878;8.142;2023-08-17T05:17:50;24.73;;;9.60;;
66559;SDS011;53413;49.878;8.142;2023-08-17T05:20:15;25.55;;;9.38;;
66559;SDS011;53413;49.878;8.142;2023-08-17T05:22:41;25.60;;;9.43;;
66559;SDS011;53413;49.878;8.142;2023-08-17T05:25:06;21.80;;;8.40;;
66559;SDS011;53413;49.878;8.142;2023-08-17T05:27:32;19.67;;;8.03;;
66559;SDS011;53413;49.878;8.142;2023-08-17T05:29:57;19.35;;;8.15;;
66559;SDS011;53413;49.878;8.142;2023-08-17T05:32:22;17.73;;;7.57;;
66559;SDS011;53413;49.878;8.142;2023-08-17T05:34:48;15.50;;;7.20;;
66559;SDS011;53413;49.878;8.142;2023-08-17T05:37:13;17.20;;;7.93;;
66559;SDS011;53413;49.878;8.142;2023-08-17T05:39:40;17.00;;;7.75;;
66559;SDS011;53413;49.878;8.142;2023-08-17T05:42:06;16.67;;;7.63;;
66559;SDS011;53413;49.878;8.142;2023-08-17T05:44:31;16.00;;;7.30;;
66559;SDS011;53413;49.878;8.142;2023-08-17T05:46:57;15.83;;;7.50;;
66559;SDS011;53413;49.878;8.142;2023-08-17T05:49:22;15.20;;;7.40;;
66559;SDS011;53413;49.878;8.142;2023-08-17T05:51:47;14.03;;;7.13;;
66559;SDS011;53413;49.878;8.142;2023-08-17T05:54:13;15.18;;;6.80;;
66559;SDS011;53413;49.878;8.142;2023-08-17T05:56:38;14.00;;;6.20;;
66559;SDS011;53413;49.878;8.142;2023-08-17T05:59:09;12.15;;;6.22;;
66559;SDS011;53413;49.878;8.142;2023-08-17T06:01:35;11.23;;;5.80;;
66559;SDS011;53413;49.878;8.142;2023-08-17T06:04:01;10.38;;;5.32;;
66559;SDS011;53413;49.878;8.142;2023-08-17T06:06:26;10.90;;;5.30;;
66559;SDS011;53413;49.878;8.142;2023-08-17T06:08:52;11.02;;;5.43;;
66559;SDS011;53413;49.878;8.142;2023-08-17T06:11:17;10.02;;;5.05;;
66559;SDS011;53413;49.878;8.142;2023-08-17T06:13:42;11.33;;;4.93;;
66559;SDS011;53413;49.878;8.142;2023-08-17T06:16:08;9.30;;;5.10;;
66559;SDS011;53413;49.878;8.142;2023-08-17T06:18:33;9.23;;;4.90;;
66559;SDS011;53413;49.878;8.142;2023-08-17T06:20:59;9.77;;;5.10;;
66559;SDS011;53413;49.878;8.142;2023-08-17T06:23:24;8.50;;;4.40;;
66559;SDS011;53413;49.878;8.142;2023-08-17T06:25:50;8.33;;;4.50;;
66559;SDS011;53413;49.878;8.142;2023-08-17T06:28:15;8.52;;;4.70;;
66559;SDS011;53413;49.878;8.142;2023-08-17T06:30:41;8.80;;;4.43;;
66559;SDS011;53413;49.878;8.142;2023-08-17T06:33:06;7.40;;;3.80;;
66559;SDS011;53413;49.878;8.142;2023-08-17T06:35:31;7.53;;;4.00;;
66559;SDS011;53413;49.878;8.142;2023-08-17T06:37:57;8.17;;;3.57;;
66559;SDS011;53413;49.878;8.142;2023-08-17T06:40:23;6.68;;;3.47;;
66559;SDS011;53413;49.878;8.142;2023-08-17T06:42:51;7.00;;;3.70;;
66559;SDS011;53413;49.878;8.142;2023-08-17T06:45:17;6.88;;;3.67;;
66559;SDS011;53413;49.878;8.142;2023-08-17T06:47:43;6.25;;;3.58;;
66559;SDS011;53413;49.878;8.142;2023-08-17T06:50:10;8.45;;;3.85;;
66559;SDS011;53413;49.878;8.142;2023-08-17T06:52:35;7.03;;;4.10;;
66559;SDS011;53413;49.878;8.142;2023-08-17T06:55:01;8.05;;;4.15;;
66559;SDS011;53413;49.878;8.142;2023-08-17T06:57:27;6.57;;;4.10;;
66559;SDS011;53413;49.878;8.142;2023-08-17T06:59:53;7.43;;;3.90;;
66559;SDS011;53413;49.878;8.142;2023-08-17T07:02:19;7.00;;;3.90;;
66559;SDS011;53413;49.878;8.142;2023-08-17T07:04:45;9.35;;;4.97;;
66559;SDS011;53413;49.878;8.142;2023-08-17T07:07:10;9.00;;;5.37;;
66559;SDS011;53413;49.878;8.142;2023-08-17T07:09:35;9.07;;;4.70;;
66559;SDS011;53413;49.878;8.142;2023-08-17T07:12:01;8.20;;;5.10;;
66559;SDS011;53413;49.878;8.142;2023-08-17T07:14:26;8.77;;;4.80;;
66559;SDS011;53413;49.878;8.142;2023-08-17T07:16:53;7.53;;;4.20;;
66559;SDS011;53413;49.878;8.142;2023-08-17T07:19:18;9.57;;;4.20;;
66559;SDS011;53413;49.878;8.142;2023-08-17T07:21:43;7.37;;;4.40;;
66559;SDS011;53413;49.878;8.142;2023-08-17T07:24:12;7.67;;;4.50;;
66559;SDS011;53413;49.878;8.142;2023-08-17T07:26:39;9.55;;;5.70;;
66559;SDS011;53413;49.878;8.142;2023-08-17T07:29:04;12.02;;;6.47;;
66559;SDS011;53413;49.878;8.142;2023-08-17T07:31:30;12.83;;;7.00;;
66559;SDS011;53413;49.878;8.142;2023-08-17T07:33:56;13.25;;;7.35;;
66559;SDS011;53413;49.878;8.142;2023-08-17T07:36:21;12.60;;;7.07;;
66559;SDS011;53413;49.878;8.142;2023-08-17T07:38:47;14.40;;;7.93;;
66559;SDS011;53413;49.878;8.142;2023-08-17T07:41:12;12.20;;;6.83;;
66559;SDS011;53413;49.878;8.142;2023-08-17T07:43:38;12.45;;;6.90;;
66559;SDS011;53413;49.878;8.142;2023-08-17T07:46:03;12.55;;;6.68;;
66559;SDS011;53413;49.878;8.142;2023-08-17T07:48:28;12.87;;;6.83;;
66559;SDS011;53413;49.878;8.142;2023-08-17T07:50:58;12.73;;;6.75;;
66559;SDS011;53413;49.878;8.142;2023-08-17T07:53:24;11.32;;;6.50;;
66559;SDS011;53413;49.878;8.142;2023-08-17T07:55:50;11.35;;;6.43;;
66559;SDS011;53413;49.878;8.142;2023-08-17T07:58:15;12.13;;;7.07;;
66559;SDS011;53413;49.878;8.142;2023-08-17T08:00:43;11.67;;;6.90;;
66559;SDS011;53413;49.878;8.142;2023-08-17T08:03:08;10.55;;;6.30;;
66559;SDS011;53413;49.878;8.142;2023-08-17T08:05:34;10.90;;;6.23;;
66559;SDS011;53413;49.878;8.142;2023-08-17T08:07:59;10.40;;;6.35;;
66559;SDS011;53413;49.878;8.142;2023-08-17T08:10:25;10.10;;;6.47;;
66559;SDS011;53413;49.878;8.142;2023-08-17T08:12:51;11.35;;;6.72;;
66559;SDS011;53413;49.878;8.142;2023-08-17T08:15:16;9.60;;;6.43;;
66559;SDS011;53413;49.878;8.142;2023-08-17T08:17:42;10.03;;;5.87;;
66559;SDS011;53413;49.878;8.142;2023-08-17T08:20:07;9.33;;;5.83;;
66559;SDS011;53413;49.878;8.142;2023-08-17T08:22:33;8.43;;;5.33;;
66559;SDS011;53413;49.878;8.142;2023-08-17T08:24:58;9.00;;;5.88;;
66559;SDS011;53413;49.878;8.142;2023-08-17T08:27:24;9.07;;;5.90;;
66559;SDS011;53413;49.878;8.142;2023-08-17T08:29:50;9.97;;;5.93;;
66559;SDS011;53413;49.878;8.142;2023-08-17T08:32:15;8.38;;;5.70;;
66559;SDS011;53413;49.878;8.142;2023-08-17T08:34:40;8.53;;;5.20;;
66559;SDS011;53413;49.878;8.142;2023-08-17T08:37:06;8.00;;;5.20;;
66559;SDS011;53413;49.878;8.142;2023-08-17T08:39:32;8.73;;;5.75;;
66559;SDS011;53413;49.878;8.142;2023-08-17T08:41:57;8.13;;;5.20;;
66559;SDS011;53413;49.878;8.142;2023-08-17T08:44:23;9.07;;;4.80;;
66559;SDS011;53413;49.878;8.142;2023-08-17T08:46:52;7.53;;;4.55;;
66559;SDS011;53413;49.878;8.142;2023-08-17T08:49:23;7.53;;;4.43;;
66559;SDS011;53413;49.878;8.142;2023-08-17T08:51:50;7.00;;;4.38;;
66559;SDS011;53413;49.878;8.142;2023-08-17T08:54:18;6.25;;;3.80;;
66559;SDS011;53413;49.878;8.142;2023-08-17T08:56:51;6.25;;;4.03;;
66559;SDS011;53413;49.878;8.142;2023-08-17T08:59:20;7.00;;;4.10;;
66559;SDS011;53413;49.878;8.142;2023-08-17T09:01:46;5.22;;;3.60;;
66559;SDS011;53413;49.878;8.142;2023-08-17T09:04:12;6.65;;;4.10;;
66559;SDS011;53413;49.878;8.142;2023-08-17T09:06:38;6.60;;;3.78;;
66559;SDS011;53413;49.878;8.142;2023-08-17T09:09:06;7.70;;;4.13;;
66559;SDS011;53413;49.878;8.142;2023-08-17T09:11:32;6.43;;;4.43;;
66559;SDS011;53413;49.878;8.142;2023-08-17T09:13:58;6.63;;;4.33;;
66559;SDS011;53413;49.878;8.142;2023-08-17T09:16:23;7.28;;;4.50;;
66559;SDS011;53413;49.878;8.142;2023-08-17T09:18:49;7.20;;;4.63;;
66559;SDS011;53413;49.878;8.142;2023-08-17T09:21:21;6.43;;;4.00;;
66559;SDS011;53413;49.878;8.142;2023-08-17T09:23:51;6.40;;;3.90;;
66559;SDS011;53413;49.878;8.142;2023-08-17T09:26:20;5.32;;;3.72;;
66559;SDS011;53413;49.878;8.142;2023-08-17T09:28:52;7.53;;;4.15;;
66559;SDS011;53413;49.878;8.142;2023-08-17T09:31:22;5.57;;;3.92;;
66559;SDS011;53413;49.878;8.142;2023-08-17T09:33:51;6.93;;;4.45;;
66559;SDS011;53413;49.878;8.142;2023-08-17T09:36:21;7.05;;;3.88;;
66559;SDS011;53413;49.878;8.142;2023-08-17T09:38:48;7.28;;;4.40;;
66559;SDS011;53413;49.878;8.142;2023-08-17T09:41:17;6.63;;;4.00;;
66559;SDS011;53413;49.878;8.142;2023-08-17T09:43:43;6.25;;;4.03;;
66559;SDS011;53413;49.878;8.142;2023-08-17T09:46:09;6.15;;;4.20;;
66559;SDS011;53413;49.878;8.142;2023-08-17T09:48:34;7.27;;;4.23;;
66559;SDS011;53413;49.878;8.142;2023-08-17T09:50:59;6.60;;;3.80;;
66559;SDS011;53413;49.878;8.142;2023-08-17T09:53:26;7.35;;;4.68;;
66559;SDS011;53413;49.878;8.142;2023-08-17T09:55:52;5.97;;;4.23;;
66559;SDS011;53413;49.878;8.142;2023-08-17T09:58:18;7.30;;;4.15;;
66559;SDS011;53413;49.878;8.142;2023-08-17T10:00:44;7.10;;;4.00;;
66559;SDS011;53413;49.878;8.142;2023-08-17T10:03:17;6.87;;;4.10;;
66559;SDS011;53413;49.878;8.142;2023-08-17T10:05:44;6.45;;;3.90;;
66559;SDS011;53413;49.878;8.142;2023-08-17T10:08:12;8.20;;;4.00;;
66559;SDS011;53413;49.878;8.142;2023-08-17T10:10:42;5.85;;;3.42;;
66559;SDS011;53413;49.878;8.142;2023-08-17T10:13:12;6.60;;;3.88;;
66559;SDS011;53413;49.878;8.142;2023-08-17T10:15:43;7.07;;;4.50;;
66559;SDS011;53413;49.878;8.142;2023-08-17T10:21:05;6.15;;;4.03;;
66559;SDS011;53413;49.878;8.142;2023-08-17T10:23:38;6.18;;;3.80;;
66559;SDS011;53413;49.878;8.142;2023-08-17T10:26:04;6.18;;;3.75;;
66559;SDS011;53413;49.878;8.142;2023-08-17T10:28:33;7.20;;;4.20;;
66559;SDS011;53413;49.878;8.142;2023-08-17T10:30:59;5.65;;;4.20;;
66559;SDS011;53413;49.878;8.142;2023-08-17T10:33:25;5.65;;;4.22;;
66559;SDS011;53413;49.878;8.142;2023-08-17T10:35:52;6.25;;;4.30;;
66559;SDS011;53413;49.878;8.142;2023-08-17T10:38:20;7.57;;;4.18;;
66559;SDS011;53413;49.878;8.142;2023-08-17T10:40:45;7.60;;;4.60;;
66559;SDS011;53413;49.878;8.142;2023-08-17T10:43:35;7.82;;;4.00;;
66559;SDS011;53413;49.878;8.142;2023-08-17T10:46:17;6.30;;;4.20;;
66559;SDS011;53413;49.878;8.142;2023-08-17T10:48:43;7.57;;;4.17;;
66559;SDS011;53413;49.878;8.142;2023-08-17T10:51:09;7.07;;;4.55;;
66559;SDS011;53413;49.878;8.142;2023-08-17T10:53:38;8.13;;;4.73;;
66559;SDS011;53413;49.878;8.142;2023-08-17T10:56:10;6.60;;;4.47;;
66559;SDS011;53413;49.878;8.142;2023-08-17T10:58:38;6.25;;;4.47;;
66559;SDS011;53413;49.878;8.142;2023-08-17T11:01:03;7.80;;;4.60;;
66559;SDS011;53413;49.878;8.142;2023-08-17T11:03:28;9.47;;;4.93;;
66559;SDS011;53413;49.878;8.142;2023-08-17T11:05:54;8.20;;;4.90;;
66559;SDS011;53413;49.878;8.142;2023-08-17T11:11:03;7.65;;;4.60;;
66559;SDS011;53413;49.878;8.142;2023-08-17T11:13:30;7.85;;;5.05;;
66559;SDS011;53413;49.878;8.142;2023-08-17T11:15:57;7.43;;;5.10;;
66559;SDS011;53413;49.878;8.142;2023-08-17T11:18:23;6.88;;;4.97;;
66559;SDS011;53413;49.878;8.142;2023-08-17T11:20:49;7.83;;;5.10;;
66559;SDS011;53413;49.878;8.142;2023-08-17T11:23:15;7.75;;;4.93;;
66559;SDS011;53413;49.878;8.142;2023-08-17T11:25:41;7.97;;;5.10;;
66559;SDS011;53413;49.878;8.142;2023-08-17T11:28:07;7.53;;;4.57;;
66559;SDS011;53413;49.878;8.142;2023-08-17T11:30:36;8.93;;;4.97;;
66559;SDS011;53413;49.878;8.142;2023-08-17T11:33:04;8.00;;;5.07;;
66559;SDS011;53413;49.878;8.142;2023-08-17T11:35:30;9.63;;;5.25;;
66559;SDS011;53413;49.878;8.142;2023-08-17T11:37:56;8.17;;;5.60;;
66559;SDS011;53413;49.878;8.142;2023-08-17T11:40:21;7.20;;;4.97;;
66559;SDS011;53413;49.878;8.142;2023-08-17T11:42:47;7.53;;;5.10;;
66559;SDS011;53413;49.878;8.142;2023-08-17T11:45:13;7.13;;;4.65;;
66559;SDS011;53413;49.878;8.142;2023-08-17T11:47:39;7.00;;;4.60;;
66559;SDS011;53413;49.878;8.142;2023-08-17T11:50:08;7.57;;;4.87;;
66559;SDS011;53413;49.878;8.142;2023-08-17T11:52:34;7.13;;;4.30;;
66559;SDS011;53413;49.878;8.142;2023-08-17T11:55:02;6.40;;;4.32;;
66559;SDS011;53413;49.878;8.142;2023-08-17T11:57:29;7.68;;;5.03;;
66559;SDS011;53413;49.878;8.142;2023-08-17T11:59:55;7.20;;;5.00;;
66559;SDS011;53413;49.878;8.142;2023-08-17T12:02:24;7.05;;;4.63;;
66559;SDS011;53413;49.878;8.142;2023-08-17T12:04:51;7.28;;;5.00;;
66559;SDS011;53413;49.878;8.142;2023-08-17T12:07:19;7.27;;;5.13;;
66559;SDS011;53413;49.878;8.142;2023-08-17T12:09:48;7.07;;;4.50;;
66559;SDS011;53413;49.878;8.142;2023-08-17T12:12:18;6.95;;;4.65;;
66559;SDS011;53413;49.878;8.142;2023-08-17T12:14:44;6.30;;;4.57;;
66559;SDS011;53413;49.878;8.142;2023-08-17T12:17:18;6.10;;;4.38;;
66559;SDS011;53413;49.878;8.142;2023-08-17T12:19:44;6.63;;;4.20;;
66559;SDS011;53413;49.878;8.142;2023-08-17T12:22:14;7.82;;;3.90;;
66559;SDS011;53413;49.878;8.142;2023-08-17T12:24:39;6.35;;;4.15;;
66559;SDS011;53413;49.878;8.142;2023-08-17T12:27:05;6.60;;;4.13;;
66559;SDS011;53413;49.878;8.142;2023-08-17T12:29:31;6.68;;;4.10;;
66559;SDS011;53413;49.878;8.142;2023-08-17T12:31:57;6.60;;;4.20;;
66559;SDS011;53413;49.878;8.142;2023-08-17T12:34:23;7.30;;;4.30;;
66559;SDS011;53413;49.878;8.142;2023-08-17T12:36:48;6.70;;;4.23;;
66559;SDS011;53413;49.878;8.142;2023-08-17T12:39:14;7.68;;;4.50;;
66559;SDS011;53413;49.878;8.142;2023-08-17T12:41:39;7.33;;;4.30;;
66559;SDS011;53413;49.878;8.142;2023-08-17T12:44:05;7.27;;;4.80;;
66559;SDS011;53413;49.878;8.142;2023-08-17T12:46:30;8.53;;;5.50;;
66559;SDS011;53413;49.878;8.142;2023-08-17T12:48:58;8.43;;;5.20;;
66559;SDS011;53413;49.878;8.142;2023-08-17T12:51:24;6.65;;;4.78;;
66559;SDS011;53413;49.878;8.142;2023-08-17T12:53:49;7.83;;;5.20;;
66559;SDS011;53413;49.878;8.142;2023-08-17T12:56:14;7.70;;;5.40;;
66559;SDS011;53413;49.878;8.142;2023-08-17T12:58:40;9.13;;;5.07;;
66559;SDS011;53413;49.878;8.142;2023-08-17T13:01:05;7.80;;;5.55;;
66559;SDS011;53413;49.878;8.142;2023-08-17T13:03:30;9.15;;;4.75;;
66559;SDS011;53413;49.878;8.142;2023-08-17T13:05:56;7.23;;;4.50;;
66559;SDS011;53413;49.878;8.142;2023-08-17T13:08:21;7.53;;;4.90;;
66559;SDS011;53413;49.878;8.142;2023-08-17T13:10:47;6.57;;;4.87;;
66559;SDS011;53413;49.878;8.142;2023-08-17T13:13:12;8.40;;;4.67;;
66559;SDS011;53413;49.878;8.142;2023-08-17T13:15:37;6.67;;;4.67;;
66559;SDS011;53413;49.878;8.142;2023-08-17T13:18:03;5.80;;;4.50;;
66559;SDS011;53413;49.878;8.142;2023-08-17T13:20:28;6.47;;;4.35;;
66559;SDS011;53413;49.878;8.142;2023-08-17T13:22:54;6.83;;;4.50;;
66559;SDS011;53413;49.878;8.142;2023-08-17T13:25:19;6.88;;;4.00;;
66559;SDS011;53413;49.878;8.142;2023-08-17T13:27:45;7.03;;;4.53;;
66559;SDS011;53413;49.878;8.142;2023-08-17T13:30:10;6.90;;;4.40;;
66559;SDS011;53413;49.878;8.142;2023-08-17T13:32:36;6.20;;;4.20;;
66559;SDS011;53413;49.878;8.142;2023-08-17T13:35:04;6.27;;;4.03;;
66559;SDS011;53413;49.878;8.142;2023-08-17T13:37:29;6.00;;;4.50;;
66559;SDS011;53413;49.878;8.142;2023-08-17T13:39:55;7.43;;;4.20;;
66559;SDS011;53413;49.878;8.142;2023-08-17T13:42:20;7.43;;;4.07;;
66559;SDS011;53413;49.878;8.142;2023-08-17T13:44:46;6.40;;;4.00;;
66559;SDS011;53413;49.878;8.142;2023-08-17T13:47:11;5.17;;;3.90;;
66559;SDS011;53413;49.878;8.142;2023-08-17T13:49:37;8.05;;;4.35;;
66559;SDS011;53413;49.878;8.142;2023-08-17T13:52:03;6.37;;;4.00;;
66559;SDS011;53413;49.878;8.142;2023-08-17T13:54:29;5.93;;;4.20;;
66559;SDS011;53413;49.878;8.142;2023-08-17T13:56:54;7.53;;;3.93;;
66559;SDS011;53413;49.878;8.142;2023-08-17T13:59:19;6.90;;;4.00;;
66559;SDS011;53413;49.878;8.142;2023-08-17T14:01:45;6.63;;;4.43;;
66559;SDS011;53413;49.878;8.142;2023-08-17T14:04:10;6.65;;;4.10;;
66559;SDS011;53413;49.878;8.142;2023-08-17T14:06:39;6.17;;;4.10;;
66559;SDS011;53413;49.878;8.142;2023-08-17T14:09:05;5.93;;;4.50;;
66559;SDS011;53413;49.878;8.142;2023-08-17T14:11:31;6.82;;;4.60;;
66559;SDS011;53413;49.878;8.142;2023-08-17T14:13:56;6.10;;;4.30;;
66559;SDS011;53413;49.878;8.142;2023-08-17T14:16:21;6.80;;;4.70;;
66559;SDS011;53413;49.878;8.142;2023-08-17T14:18:47;6.33;;;4.60;;
66559;SDS011;53413;49.878;8.142;2023-08-17T14:21:12;6.00;;;4.40;;
66559;SDS011;53413;49.878;8.142;2023-08-17T14:23:37;7.65;;;4.05;;
66559;SDS011;53413;49.878;8.142;2023-08-17T14:26:03;6.22;;;4.18;;
66559;SDS011;53413;49.878;8.142;2023-08-17T14:28:29;7.80;;;4.60;;
66559;SDS011;53413;49.878;8.142;2023-08-17T14:30:54;6.90;;;4.63;;
66559;SDS011;53413;49.878;8.142;2023-08-17T14:33:19;6.70;;;4.20;;
66559;SDS011;53413;49.878;8.142;2023-08-17T14:35:45;6.22;;;3.90;;
66559;SDS011;53413;49.878;8.142;2023-08-17T14:38:10;6.10;;;4.00;;
66559;SDS011;53413;49.878;8.142;2023-08-17T14:40:38;6.13;;;4.03;;